Flight Track Log - Related Links

Times and Time Zones

All times are in EDT time to prevent confusion due to time zone crossing. See the EGF4188 flight status page for this flight to view local times or setup timezone preferences in your user account.

Time Position Orientation Groundspeed Altitude Reporting Facility
EDT Latitude Longitude Course Direction KTS MPH feet Rate Location/Type
Sat 03:43:18 PM 41.9833 -88.0000 270° West 192 221 3,500  Level Chicago TRACON
Sat 03:44:00 PM 41.9667 -88.2456 270° West  Level FlightAware
Sat 03:44:12 PM 41.9833 -88.0667 270° West 221 254 5,600  Level Chicago TRACON
Sat 03:45:00 PM 41.9667 -88.3608 270° West  Level FlightAware
Sat 03:45:13 PM 41.9728 -88.1464 260° West 223 257 8,500  Level Chicago Center
Sat 03:46:00 PM 41.9667 -88.4760 270° West  Level FlightAware
Sat 03:46:15 PM 41.9694 -88.2358 267° West 241 277 11,100  Level Chicago Center
Sat 03:47:00 PM 41.9668 -88.5912 270° West  Level FlightAware
Sat 03:47:16 PM 41.9864 -88.3297 284° West 257 296 12,800  Level Chicago Center
Sat 03:48:00 PM 41.9667 -88.7065 270° West  Level FlightAware
Sat 03:48:18 PM 42.0053 -88.4278 285° West 269 310 14,900  Level Chicago Center
Sat 03:49:20 PM 42.0311 -88.5483 286° West 279 321 17,000 1,951 Climbing Chicago Center
Sat 03:50:21 PM 42.0536 -88.6511 286° West 289 333 18,900 2,195 Climbing Chicago Center
Sat 03:51:23 PM 42.0603 -88.7539 275° West 279 321 21,500 2,537 Climbing Chicago Center
Sat 03:52:24 PM 42.0675 -88.8619 275° West 272 313 24,100 2,341 Climbing Chicago Center
Sat 03:53:26 PM 42.0742 -88.9594 275° West 263 303 26,300 1,984 Climbing Chicago Center
Sat 03:54:28 PM 42.0869 -89.0519 281° West 254 292 28,200 1,854 Climbing Chicago Center
Sat 03:55:29 PM 42.1011 -89.1444 282° West 252 290 30,100 1,659 Climbing Chicago Center
Sat 03:56:31 PM 42.1153 -89.2344 282° West 248 285 31,600 919 Climbing Chicago Center
Sat 03:57:33 PM 42.1308 -89.3319 282° West 261 300 32,000 195 Climbing Chicago Center
Sat 03:58:34 PM 42.1528 -89.4711 282° West 319 367 32,000  Level Chicago Center
Sat 03:59:36 PM 42.1731 -89.6019 282° West 350 403 32,000  Level Chicago Center
Sat 04:00:38 PM 42.1914 -89.7269 281° West 342 394 32,000  Level Chicago Center
Sat 04:01:39 PM 42.2100 -89.8500 282° West 336 387 32,000  Level Chicago Center
Sat 04:02:41 PM 42.2289 -89.9781 281° West 343 395 32,000  Level Chicago Center
Sat 04:03:43 PM 42.2469 -90.1064 281° West 349 402 32,000  Level Chicago Center
Sat 04:04:44 PM 42.2661 -90.2308 282° West 344 396 32,000  Level Chicago Center
Sat 04:05:46 PM 42.2828 -90.3556 280° West 340 391 32,000  Level Chicago Center
Sat 04:06:48 PM 42.3047 -90.5039 281° West 340 391 32,000  Level Chicago Center
Sat 04:07:50 PM 42.3222 -90.6275 281° West 338 389 32,000  Level Chicago Center
Sat 04:08:51 PM 42.3403 -90.7519 281° West 339 390 32,000 -195 Level Chicago Center
Sat 04:09:53 PM 42.3578 -90.8769 281° West 341 392 31,600 -1,742 Descending Chicago Center
Sat 04:10:55 PM 42.3739 -91.0006 280° West 336 387 28,400 -3,073 Descending Chicago Center
Sat 04:11:56 PM 42.3914 -91.1208 281° West 330 380 25,300 -3,220 Descending Chicago Center
Sat 04:12:58 PM 42.4092 -91.2603 280° West 317 365 21,800 -3,145 Descending Chicago Center
Sat 04:14:00 PM 42.4242 -91.3719 280° West 304 350 18,800 -2,878 Descending Chicago Center
Sat 04:15:01 PM 42.4386 -91.4819 280° West 300 345 15,900 -2,878 Descending Chicago Center
Sat 04:16:03 PM 42.4533 -91.5864 281° West 286 329 12,900 -2,565 Descending Chicago Center
Sat 04:17:05 PM 42.4667 -91.6906 280° West 282 325 10,600 -1,756 Descending Chicago Center
Sat 04:18:06 PM 42.4792 -91.7828 280° West 268 308 9,300 -1,512 Descending Chicago Center
Sat 04:19:08 PM 42.4889 -91.8703 279° West 249 287 7,500 -1,984 Descending Chicago Center
Sat 04:20:10 PM 42.5019 -91.9703 280° West 235 270 5,200 -1,659 Descending Chicago Center
Sat 04:21:11 PM 42.5122 -92.0492 280° West 224 258 4,100 -634 Descending Chicago Center
Sat 04:22:13 PM 42.5086 -92.1339 267° West 225 259 3,900 -290 Descending Chicago Center
Sat 04:23:15 PM 42.5036 -92.2156 265° West 223 257 3,500 -634 Descending Chicago Center
Sat 04:24:16 PM 42.5039 -92.2819 270° West 197 227 2,600 -732 Descending Chicago Center
Sat 04:25:18 PM 42.5183 -92.3303 292° West 161 185 2,000 -677 Descending Chicago Center
Sat 04:26:20 PM 42.5381 -92.3647 308° West 135 155 1,200 -774 Descending Chicago Center
Sat 04:28:00 PM 42.5500 -92.4000 289° West  Level FlightAware
Sat 04:35:00 PM 42.5571 -92.4003 289° West  Level Estimated
Sat 04:36:00 PM 42.5500 -92.4000 289° West  Level FlightAware

Login

Don't have an account? Register now (free) for customized features, flight alerts, and more!